Socorro, New Mexico
Current Conditions -  °F | °C
As of 6:15 AM on Thursday 30 Oct 2014 (Local Time) from KONM Reporting Station
Clear Clear  
Wind Chill: 42°   Ceiling: Unl
Heat Index: 46°   Visibility: 10mi
Dew Point: 28°   Wind: 9mph
Humidity: 48%   Direction: 330°NNW
Pressure: 30.27"   Gusts: NA
Location:  34.06°N, 106.89°W
Report Text: KONM 301215Z AUTO 33008KT 10SM CLR 08/M02 A3027 RMK AO2 T00801025
Loading
Personal Weather Stations






























Interactive Weather Map
Tropical Storm Tracking
New forecast layout! Learn more

10-Day Weather Forecast

Advertisements
Track Severe Weather on mobile